createdAt,value
2023-02-04T00:00:54.916Z,100103.28
2023-02-04T00:05:56.622Z,100153.31
2023-02-04T00:10:58.223Z,100180.75
2023-02-04T00:15:59.931Z,100198.19
2023-02-04T00:21:01.741Z,100196.97
2023-02-04T00:26:03.727Z,100208.72
2023-02-04T00:31:05.632Z,100221.41
2023-02-04T00:36:08.363Z,100261.81
2023-02-04T00:41:09.999Z,100276.41
2023-02-04T00:46:11.764Z,100289.84
2023-02-04T00:51:13.519Z,100317.59
2023-02-04T00:56:15.120Z,100324.56
2023-02-04T01:01:17.576Z,100333.00
2023-02-04T01:06:19.288Z,100362.25
2023-02-04T01:11:20.989Z,100380.00
2023-02-04T01:16:23.166Z,100403.66
2023-02-04T01:21:25.287Z,100418.13
2023-02-04T01:26:26.878Z,100422.63
2023-02-04T01:31:31.478Z,100441.84
2023-02-04T01:36:33.214Z,100452.94
2023-02-04T01:41:34.864Z,100466.28
2023-02-04T01:46:37.539Z,100485.06
2023-02-04T01:51:39.898Z,100499.97
2023-02-04T01:56:45.792Z,100502.88
2023-02-04T02:01:50.224Z,100520.84
2023-02-04T02:06:55.525Z,100546.66
2023-02-04T02:11:57.823Z,100547.75
2023-02-04T02:17:01.086Z,100574.94
2023-02-04T02:22:13.337Z,100595.66
2023-02-04T02:27:15.163Z,100594.19
2023-02-04T02:32:17.542Z,100607.72
2023-02-04T02:37:20.150Z,100642.56
2023-02-04T02:42:21.915Z,100661.50
2023-02-04T02:47:24.249Z,100680.25
2023-02-04T02:52:25.876Z,100683.44
2023-02-04T02:57:27.611Z,100685.03
2023-02-04T03:02:29.619Z,100693.00
2023-02-04T03:07:31.750Z,100727.38
2023-02-04T03:12:33.970Z,100733.31
2023-02-04T03:17:36.370Z,100744.44
2023-02-04T03:22:38.128Z,100753.91
2023-02-04T03:27:39.841Z,100768.50
2023-02-04T03:32:41.833Z,100774.84
2023-02-04T03:37:44.041Z,100803.50
2023-02-04T03:42:45.645Z,100821.41
2023-02-04T03:47:47.254Z,100838.88
2023-02-04T03:52:50.193Z,100852.53
2023-02-04T03:57:53.018Z,100885.59
2023-02-04T04:02:54.705Z,100911.09
2023-02-04T04:07:56.331Z,100921.41
2023-02-04T04:12:57.991Z,100937.91
2023-02-04T04:17:59.632Z,100954.50
2023-02-04T04:23:01.268Z,100965.69
2023-02-04T04:28:02.965Z,100978.75
2023-02-04T04:33:04.627Z,100993.38
2023-02-04T04:38:06.270Z,100994.47
2023-02-04T04:43:07.936Z,101018.34
2023-02-04T04:48:09.545Z,101027.53
2023-02-04T04:53:11.462Z,101029.03
2023-02-04T04:58:13.112Z,101054.28
2023-02-04T05:03:14.709Z,101064.41
2023-02-04T05:08:17.083Z,101069.34
2023-02-04T05:13:18.762Z,101083.31
2023-02-04T05:18:20.351Z,101090.50
2023-02-04T05:23:21.949Z,101095.81
2023-02-04T05:28:23.573Z,101106.75
2023-02-04T05:33:25.160Z,101129.41
2023-02-04T05:38:26.754Z,101135.78
2023-02-04T05:43:28.369Z,101157.72
2023-02-04T05:48:29.954Z,101172.56
2023-02-04T05:53:32.046Z,101180.38
2023-02-04T05:58:33.766Z,101186.25
2023-02-04T06:03:35.529Z,101204.56
2023-02-04T06:08:37.179Z,101220.63
2023-02-04T06:13:38.834Z,101219.69
2023-02-04T06:18:40.447Z,101238.47
2023-02-04T06:23:42.063Z,101261.59
2023-02-04T06:28:43.673Z,101267.50
2023-02-04T06:33:45.273Z,101280.03
2023-02-04T06:38:46.872Z,101297.22
2023-02-04T06:43:48.474Z,101305.03
2023-02-04T06:48:50.066Z,101322.69
2023-02-04T06:53:52.578Z,101334.31
2023-02-04T06:58:54.195Z,101347.63
2023-02-04T07:03:55.808Z,101349.03
2023-02-04T07:08:57.451Z,101356.72
2023-02-04T07:13:59.086Z,101369.09
2023-02-04T07:19:00.736Z,101360.44
2023-02-04T07:24:02.542Z,101370.31
2023-02-04T07:29:04.170Z,101373.88
2023-02-04T07:34:06.518Z,101380.16
2023-02-04T07:39:08.448Z,101384.72
2023-02-04T07:44:10.082Z,101392.88
2023-02-04T07:49:11.769Z,101402.53
2023-02-04T07:54:13.415Z,101411.78
2023-02-04T07:59:15.188Z,101422.00
2023-02-04T08:04:16.801Z,101432.94
2023-02-04T08:09:18.390Z,101445.50
2023-02-04T08:14:19.978Z,101443.75
2023-02-04T08:19:21.828Z,101454.97
2023-02-04T08:24:23.418Z,101465.97
2023-02-04T08:29:28.195Z,101486.50
2023-02-04T08:34:30.299Z,101488.16
2023-02-04T08:39:33.020Z,101489.16
2023-02-04T08:44:34.655Z,101505.28
2023-02-04T08:49:36.959Z,101528.28
2023-02-04T08:54:38.576Z,101531.50
2023-02-04T08:59:40.224Z,101528.31
2023-02-04T09:04:41.850Z,101536.47
2023-02-04T09:09:43.465Z,101546.41
2023-02-04T09:14:45.051Z,101554.69
2023-02-04T09:19:46.658Z,101546.53
2023-02-04T09:24:48.304Z,101561.44
2023-02-04T09:29:49.897Z,101555.69
2023-02-04T09:34:51.922Z,101571.09
2023-02-04T09:39:54.841Z,101590.41
2023-02-04T09:44:57.232Z,101594.13
2023-02-04T09:49:58.923Z,101597.06
2023-02-04T09:55:00.555Z,101610.34
2023-02-04T10:00:02.146Z,101619.09
2023-02-04T10:05:07.101Z,101622.81
2023-02-04T10:10:18.572Z,62177.38
2023-02-04T10:15:20.821Z,62177.38
2023-02-04T10:20:24.852Z,62177.38
2023-02-04T10:25:26.873Z,101637.94
2023-02-04T10:30:33.803Z,101637.75
2023-02-04T10:35:47.951Z,101634.50
2023-02-04T10:41:01.212Z,101637.81
2023-02-04T10:46:03.969Z,101635.94
2023-02-04T10:51:05.623Z,101637.47
2023-02-04T10:56:16.060Z,101641.47
2023-02-04T11:01:17.735Z,101639.94
2023-02-04T11:06:24.230Z,101633.66
2023-02-04T11:11:26.566Z,101641.53
2023-02-04T11:16:32.885Z,101642.75
2023-02-04T11:21:34.460Z,101661.69
2023-02-04T11:26:43.716Z,101656.13
2023-02-04T11:31:59.026Z,101653.00
2023-02-04T11:37:12.257Z,101648.78
2023-02-04T11:42:41.610Z,101666.97
2023-02-04T11:47:43.892Z,101664.53
2023-02-04T11:52:45.706Z,101668.78
2023-02-04T11:57:52.590Z,101672.75
2023-02-04T12:03:04.614Z,101680.50
2023-02-04T12:08:34.664Z,101671.59
2023-02-04T12:13:49.536Z,101678.31
2023-02-04T12:18:51.376Z,101687.13
2023-02-04T12:23:52.984Z,101694.72
2023-02-04T12:28:54.588Z,101695.09
2023-02-04T12:33:56.292Z,101701.91
2023-02-04T12:39:00.969Z,101714.28
2023-02-04T12:44:02.997Z,101710.31
2023-02-04T12:49:04.613Z,101706.00
2023-02-04T12:54:06.279Z,101704.41
2023-02-04T12:59:07.868Z,101705.34
2023-02-04T13:04:09.456Z,101698.78
2023-02-04T13:09:11.102Z,101698.72
2023-02-04T13:14:12.749Z,101700.81
2023-02-04T13:19:14.333Z,101696.06
2023-02-04T13:24:16.303Z,101707.59
2023-02-04T13:29:18.124Z,101717.34
2023-02-04T13:34:19.940Z,101714.19
2023-02-04T13:39:21.535Z,101715.41
2023-02-04T13:44:23.201Z,101718.22
2023-02-04T13:49:25.018Z,101727.75
2023-02-04T13:54:26.672Z,101713.25
2023-02-04T13:59:28.269Z,101715.78
2023-02-04T14:04:29.916Z,101710.88
2023-02-04T14:09:31.530Z,101716.22
2023-02-04T14:14:33.182Z,101714.09
2023-02-04T14:19:34.782Z,101719.06
2023-02-04T14:24:36.730Z,101728.59
2023-02-04T14:29:38.375Z,101728.53
2023-02-04T14:34:39.983Z,101735.03
2023-02-04T14:39:41.588Z,101736.81
2023-02-04T14:44:43.250Z,101732.09
2023-02-04T14:49:44.898Z,101741.00
2023-02-04T14:54:46.484Z,101733.28
2023-02-04T14:59:48.086Z,101734.56
2023-02-04T15:04:49.732Z,101722.91
2023-02-04T15:09:51.771Z,101730.88
2023-02-04T15:14:53.446Z,101729.88
2023-02-04T15:19:55.049Z,101727.38
2023-02-04T15:24:56.687Z,101715.75
2023-02-04T15:29:58.329Z,101722.50
2023-02-04T15:34:59.950Z,101725.16
2023-02-04T15:40:01.723Z,101731.44
2023-02-04T15:45:04.570Z,101736.31
2023-02-04T15:50:08.747Z,101727.44
2023-02-04T15:55:10.457Z,101742.38
2023-02-04T16:00:12.646Z,101743.69
2023-02-04T16:05:14.361Z,101751.72
2023-02-04T16:10:18.358Z,101764.81
2023-02-04T16:15:20.049Z,101766.53
2023-02-04T16:20:21.650Z,101763.53
2023-02-04T16:25:23.909Z,101779.06
2023-02-04T16:30:25.543Z,101775.13
2023-02-04T16:35:27.408Z,101776.63
2023-02-04T16:40:29.074Z,101784.31
2023-02-04T16:45:30.877Z,101792.41
2023-02-04T16:50:32.804Z,101792.97
2023-02-04T16:55:35.103Z,101808.06
2023-02-04T17:00:38.730Z,101811.25
2023-02-04T17:05:41.184Z,101815.31
2023-02-04T17:11:02.048Z,101812.22
2023-02-04T17:16:03.823Z,101817.16
2023-02-04T17:21:05.605Z,101824.00
2023-02-04T17:26:07.228Z,101832.75
2023-02-04T17:31:08.976Z,101831.88
2023-02-04T17:36:11.226Z,101836.47
2023-02-04T17:41:12.887Z,101836.63
2023-02-04T17:46:14.487Z,101829.22
2023-02-04T17:51:16.274Z,101825.47
2023-02-04T17:56:17.940Z,101830.91
2023-02-04T18:01:21.947Z,101833.59
2023-02-04T18:06:29.872Z,101833.53
2023-02-04T18:11:37.807Z,101837.66
2023-02-04T18:16:40.141Z,101832.41
2023-02-04T18:21:41.770Z,101848.72
2023-02-04T18:26:49.382Z,101846.00
2023-02-04T18:31:57.123Z,101838.53
2023-02-04T18:36:58.772Z,101842.91
2023-02-04T18:42:00.380Z,101843.03
2023-02-04T18:47:09.696Z,101835.94
2023-02-04T18:52:19.473Z,101831.28
2023-02-04T18:57:35.680Z,101828.31
2023-02-04T19:02:49.371Z,101831.88
2023-02-04T19:08:13.557Z,101831.75
2023-02-04T19:13:25.715Z,101833.53
2023-02-04T19:18:32.667Z,101839.59
2023-02-04T19:23:36.266Z,101845.91
2023-02-04T19:28:38.000Z,101849.91
2023-02-04T19:33:45.427Z,101861.13
2023-02-04T19:38:48.516Z,101858.66
2023-02-04T19:43:50.128Z,101871.06
2023-02-04T19:48:52.124Z,101867.63
2023-02-04T19:54:20.147Z,101872.13
2023-02-04T19:59:28.806Z,101874.31
2023-02-04T20:04:36.296Z,101869.09
2023-02-04T20:09:37.943Z,101882.00
2023-02-04T20:14:46.250Z,101880.09
2023-02-04T20:19:50.023Z,101878.28
2023-02-04T20:25:05.377Z,101892.72
2023-02-04T20:30:11.800Z,101899.19
2023-02-04T20:35:13.588Z,101906.53
2023-02-04T20:40:22.570Z,101917.75
2023-02-04T20:45:41.780Z,101923.59
2023-02-04T20:50:52.073Z,101933.56
2023-02-04T20:55:53.692Z,101935.88
2023-02-04T21:00:56.119Z,101944.84
2023-02-04T21:05:59.672Z,101948.72
2023-02-04T21:11:02.285Z,101954.50
2023-02-04T21:16:04.572Z,101965.59
2023-02-04T21:21:08.064Z,101972.22
2023-02-04T21:26:09.658Z,101976.34
2023-02-04T21:31:12.028Z,101978.63
2023-02-04T21:36:13.805Z,101986.84
2023-02-04T21:41:16.574Z,101984.75
2023-02-04T21:46:18.973Z,101985.03
2023-02-04T21:51:20.618Z,101979.56
2023-02-04T21:56:22.295Z,101986.34
2023-02-04T22:01:23.935Z,101982.09
2023-02-04T22:06:25.592Z,101961.94
2023-02-04T22:11:27.171Z,101968.28
2023-02-04T22:16:28.855Z,101984.09
2023-02-04T22:21:30.531Z,101989.66
2023-02-04T22:26:32.108Z,101991.34
2023-02-04T22:31:33.842Z,102000.16
2023-02-04T22:36:35.503Z,102009.78
2023-02-04T22:41:37.111Z,102003.94
2023-02-04T22:46:38.746Z,102005.75
2023-02-04T22:51:40.381Z,102001.81
2023-02-04T22:56:41.995Z,102002.16
2023-02-04T23:01:43.693Z,101999.09
2023-02-04T23:06:45.418Z,102001.16
2023-02-04T23:11:47.060Z,102000.22
2023-02-04T23:16:49.158Z,101996.78
2023-02-04T23:21:50.753Z,102000.56
2023-02-04T23:26:52.401Z,102013.66
2023-02-04T23:31:54.840Z,102023.25
2023-02-04T23:36:56.511Z,102019.63
2023-02-04T23:41:58.446Z,102026.22
2023-02-04T23:47:00.089Z,102021.25
2023-02-04T23:52:02.017Z,102026.09
2023-02-04T23:57:03.942Z,102009.25
